This is the latest recevied weather packets stored in our database for station/object DL2BWO-13. If no packets are shown the sender has not sent any weather packets the latest 10 day(s).
| Time | Temp. | Humidity | Pressure | Rain* | Wind** | Luminosity | Snow |
|---|---|---|---|---|---|---|---|
| 1777597368 | 6.67° C | 79% | 733.4 hPa | 0 mm | - | - | - |
| 1777596432 | 7.22° C | 79% | 733.8 hPa | 0 mm | - | - | - |
| 1777595496 | 7.22° C | 80% | 733.9 hPa | 0 mm | - | - | - |
| 1777594560 | 7.78° C | 77% | 734.2 hPa | 0 mm | - | - | - |
| 1777593624 | 7.78° C | 78% | 734.5 hPa | 0 mm | - | - | - |
| 1777592688 | 7.78° C | 77% | 734.7 hPa | 0 mm | - | - | - |
| 1777591752 | 8.33° C | 77% | 735 hPa | 0 mm | - | - | - |
| 1777590816 | 8.33° C | 77% | 735.1 hPa | 0 mm | - | - | - |
| 1777589880 | 8.89° C | 76% | 735.5 hPa | 0 mm | - | - | - |
| 1777588944 | 8.89° C | 73% | 735.8 hPa | 0 mm | - | - | - |
| 1777588008 | 9.44° C | 74% | 736.1 hPa | 0 mm | - | - | - |
| 1777587072 | 9.44° C | 72% | 736.4 hPa | 0 mm | - | - | - |
| 1777586136 | 10° C | 71% | 736.7 hPa | 0 mm | - | - | - |
| 1777585200 | 10° C | 72% | 736.9 hPa | 0 mm | - | - | - |
| 1777584265 | 10° C | 71% | 737.2 hPa | 0 mm | - | - | - |
| 1777583329 | 10.56° C | 66% | 737.7 hPa | 0 mm | - | - | - |
| 1777581457 | 11.11° C | 66% | 738.4 hPa | 0 mm | - | - | - |
| 1777580521 | 11.67° C | 67% | 738.7 hPa | 0 mm | - | - | - |
| 1777579585 | 11.67° C | 66% | 738.9 hPa | 0 mm | - | - | - |
| 1777578649 | 12.22° C | 64% | 739.4 hPa | 0 mm | - | - | - |
| 1777577713 | 12.78° C | 62% | 739.9 hPa | 0 mm | - | - | - |
| 1777576777 | 13.33° C | 61% | 740.6 hPa | 0 mm | - | - | - |
| 1777575841 | 13.89° C | 59% | 741.2 hPa | 0 mm | - | - | - |
| 1777573969 | 16.11° C | 55% | 743.5 hPa | 0 mm | - | - | - |
| 1777573033 | 16.67° C | 53% | 744.5 hPa | 0 mm | - | - | - |
* Rain latest hour (hover to see other rain measurements)
** Current wind speed in m/s (hover to see current wind gust speed)